Time;durP1;ratioP1;P1;durP2;ratioP2;P2;SDS_P1;SDS_P2;PMS_P1;PMS_P2;Temp;Humidity;BMP_temperature;BMP_pressure;BME280_temperature;BME280_humidity;BME280_pressure;Samples;Min_cycle;Max_cycle;Signal;HPM_P1;HPM_P2
2022/04/11 00:00:39;;;;;;;0.10;0.10;;;3.10;99.90;;;;;;5013031;28;20022;-63
2022/04/11 00:03:05;;;;;;;0.10;0.10;;;3.20;99.90;;;;;;5012882;28;20030;-63
2022/04/11 00:05:31;;;;;;;0.15;0.15;;;3.30;99.90;;;;;;5012239;28;20490;-63
2022/04/11 00:07:57;;;;;;;0.20;0.20;;;3.30;99.90;;;;;;5012512;28;20036;-63
2022/04/11 00:10:23;;;;;;;0.40;0.40;;;3.40;99.90;;;;;;4995713;28;20405;-64
2022/04/11 00:12:49;;;;;;;1.30;1.20;;;3.30;99.90;;;;;;5011608;28;20034;-63
2022/04/11 00:15:14;;;;;;;0.10;0.10;;;3.00;99.90;;;;;;5013056;28;20041;-64
2022/04/11 00:17:40;;;;;;;0.10;0.10;;;2.90;99.90;;;;;;5012705;28;20057;-63
2022/04/11 00:20:07;;;;;;;0.93;0.73;;;2.50;99.90;;;;;;5013122;28;20049;-64
2022/04/11 00:22:36;;;;;;;0.10;0.10;;;2.60;99.90;;;;;;5012631;28;20022;-64
2022/04/11 00:25:04;;;;;;;0.95;0.95;;;2.60;99.90;;;;;;5012736;28;20030;-64
2022/04/11 00:27:30;;;;;;;0.10;0.10;;;2.50;99.90;;;;;;5011332;28;20077;-64
2022/04/11 00:29:56;;;;;;;0.82;0.82;;;2.60;99.90;;;;;;5012746;28;20026;-64
2022/04/11 00:32:22;;;;;;;0.10;0.10;;;2.60;99.90;;;;;;4994911;28;20041;-63
2022/04/11 00:34:47;;;;;;;0.40;0.40;;;2.70;99.90;;;;;;5012544;28;20034;-64
2022/04/11 00:37:13;;;;;;;0.65;0.65;;;2.70;99.90;;;;;;5012238;28;20116;-64
2022/04/11 00:39:39;;;;;;;0.10;0.10;;;2.80;99.90;;;;;;4995074;28;20418;-64
2022/04/11 00:42:16;;;;;;;0.00;0.00;;;2.90;99.90;;;;;;5012732;28;20033;-64
2022/04/11 00:44:42;;;;;;;0.57;0.57;;;2.80;99.90;;;;;;5012082;28;20079;-64
2022/04/11 00:47:08;;;;;;;0.30;0.30;;;2.70;99.90;;;;;;5010878;28;20034;-64
2022/04/11 00:49:33;;;;;;;0.10;0.10;;;2.70;99.90;;;;;;5012538;28;20045;-64
2022/04/11 00:51:59;;;;;;;0.10;0.10;;;2.80;99.90;;;;;;5012230;28;20029;-64
2022/04/11 00:54:32;;;;;;;0.13;0.13;;;2.90;99.90;;;;;;5011430;28;20163;-64
2022/04/11 00:56:58;;;;;;;0.28;0.28;;;2.90;99.90;;;;;;5010924;28;20112;-64
2022/04/11 00:59:25;;;;;;;0.88;0.82;;;3.00;99.90;;;;;;5010833;28;20047;-64
2022/04/11 01:01:51;;;;;;;0.30;0.30;;;2.90;99.90;;;;;;5026567;22;20041;-63
2022/04/11 01:04:27;;;;;;;0.60;0.60;;;3.00;99.90;;;;;;5007621;28;20579;-62
2022/04/11 01:06:55;;;;;;;0.10;0.10;;;3.00;99.90;;;;;;5028933;28;20191;-63
2022/04/11 01:09:23;;;;;;;0.00;0.00;;;3.10;99.90;;;;;;5031788;28;20126;-63
2022/04/11 01:11:49;;;;;;;1.55;0.90;;;3.10;99.90;;;;;;5046953;28;20409;-63
2022/04/11 01:14:15;;;;;;;0.77;0.73;;;3.10;99.90;;;;;;5033013;28;20040;-62
2022/04/11 01:16:51;;;;;;;1.42;1.02;;;2.90;99.90;;;;;;5030191;28;20046;-62
2022/04/11 01:19:18;;;;;;;0.20;0.20;;;2.80;99.90;;;;;;5030614;28;20112;-62
2022/04/11 01:21:45;;;;;;;0.10;0.10;;;2.80;99.90;;;;;;5030247;28;20136;-62
2022/04/11 01:24:12;;;;;;;1.55;1.25;;;2.70;99.90;;;;;;5033403;28;20110;-63
2022/04/11 01:26:38;;;;;;;0.10;0.10;;;2.60;99.90;;;;;;5033222;28;20036;-62
2022/04/11 01:29:04;;;;;;;1.25;0.47;;;2.50;99.90;;;;;;5033601;28;20028;-62
2022/04/11 01:31:33;;;;;;;0.20;0.20;;;2.50;99.90;;;;;;5051381;28;20036;-62
2022/04/11 01:33:59;;;;;;;0.40;0.40;;;2.40;99.90;;;;;;5051340;28;20040;-62
2022/04/11 01:36:25;;;;;;;0.25;0.25;;;2.30;99.90;;;;;;5050861;28;20043;-63
2022/04/11 01:38:50;;;;;;;0.30;0.30;;;2.40;99.90;;;;;;5033123;28;20025;-63
2022/04/11 01:41:16;;;;;;;0.10;0.10;;;2.50;99.90;;;;;;5017527;28;20566;-63
2022/04/11 01:43:42;;;;;;;0.15;0.15;;;2.60;99.90;;;;;;4977796;28;20025;-63
2022/04/11 01:46:08;;;;;;;0.50;0.50;;;2.70;99.90;;;;;;5011478;28;20025;-63
2022/04/11 01:48:33;;;;;;;0.10;0.10;;;2.80;99.90;;;;;;5011145;28;20096;-63
2022/04/11 01:50:59;;;;;;;0.05;0.05;;;2.90;99.90;;;;;;5011278;28;20033;-62
2022/04/11 01:53:25;;;;;;;0.30;0.30;;;2.90;99.90;;;;;;5010628;28;20443;-63
2022/04/11 01:55:50;;;;;;;0.55;0.55;;;3.00;99.90;;;;;;5011220;28;20033;-63
2022/04/11 01:58:16;;;;;;;0.17;0.17;;;3.00;99.90;;;;;;5010761;28;20109;-62
2022/04/11 02:00:42;;;;;;;0.13;0.13;;;3.00;99.90;;;;;;5010980;28;20037;-63
2022/04/11 02:03:10;;;;;;;1.17;1.05;;;3.00;99.90;;;;;;4993444;28;20034;-62
2022/04/11 02:05:36;;;;;;;0.40;0.40;;;3.00;99.90;;;;;;4993842;28;20363;-63
2022/04/11 02:08:05;;;;;;;0.10;0.10;;;3.00;99.90;;;;;;5010736;28;20022;-63
2022/04/11 02:10:31;;;;;;;1.48;1.05;;;3.00;99.90;;;;;;4993721;28;20366;-63
2022/04/11 02:12:58;;;;;;;0.13;0.13;;;3.00;99.90;;;;;;5010905;28;20033;-63
2022/04/11 02:15:24;;;;;;;0.55;0.55;;;2.90;99.90;;;;;;5035310;28;20032;-63
2022/04/11 02:17:52;;;;;;;0.20;0.20;;;2.80;99.90;;;;;;5050068;28;20492;-62
2022/04/11 02:20:18;;;;;;;0.63;0.63;;;2.70;99.90;;;;;;5050312;28;20521;-63
2022/04/11 02:22:48;;;;;;;0.00;0.00;;;2.60;99.90;;;;;;5050206;28;20052;-62
2022/04/11 02:25:15;;;;;;;0.38;0.38;;;2.60;99.90;;;;;;5050057;28;20037;-63
2022/04/11 02:27:42;;;;;;;0.30;0.22;;;2.50;99.90;;;;;;5015848;28;20032;-64
2022/04/11 02:30:11;;;;;;;0.10;0.10;;;2.40;99.90;;;;;;5032992;28;20488;-63
2022/04/11 02:32:37;;;;;;;1.83;1.35;;;2.40;99.90;;;;;;5032780;28;20485;-63
2022/04/11 02:35:04;;;;;;;0.20;0.20;;;2.40;99.90;;;;;;5032458;28;20036;-64
2022/04/11 02:37:31;;;;;;;0.70;0.65;;;2.40;99.90;;;;;;5050084;28;20110;-64
2022/04/11 02:39:56;;;;;;;0.10;0.10;;;2.40;99.90;;;;;;5032353;28;20477;-64
2022/04/11 02:42:28;;;;;;;0.20;0.20;;;2.40;99.90;;;;;;5032484;28;20029;-64
2022/04/11 02:44:54;;;;;;;;;;;2.40;99.90;;;;;;5033040;28;20114;-64
2022/04/11 02:47:20;;;;;;;0.20;0.20;;;2.40;99.90;;;;;;5032096;28;19988;-64
2022/04/11 02:49:47;;;;;;;3.30;0.63;;;2.30;99.90;;;;;;5032293;28;20057;-64
2022/04/11 02:52:13;;;;;;;0.20;0.20;;;2.30;99.90;;;;;;5032435;28;20111;-64
2022/04/11 02:54:40;;;;;;;0.10;0.10;;;2.30;99.90;;;;;;5050449;28;20075;-63
2022/04/11 02:57:06;;;;;;;0.55;0.55;;;2.30;99.90;;;;;;5049666;28;20464;-64
2022/04/11 02:59:33;;;;;;;4.22;0.75;;;2.30;99.90;;;;;;5050295;28;20064;-63
2022/04/11 03:02:00;;;;;;;0.10;0.10;;;2.30;99.90;;;;;;5015272;28;20071;-64
2022/04/11 03:04:29;;;;;;;2.00;1.65;;;2.30;99.90;;;;;;5049900;28;20021;-64
2022/04/11 03:06:56;;;;;;;0.10;0.10;;;2.40;99.90;;;;;;5049664;28;20548;-64
2022/04/11 03:09:22;;;;;;;0.10;0.10;;;2.40;99.90;;;;;;5032311;28;20108;-63
2022/04/11 03:11:51;;;;;;;0.10;0.10;;;2.50;99.90;;;;;;5049633;28;20113;-64
2022/04/11 03:14:16;;;;;;;0.10;0.10;;;2.50;99.90;;;;;;5029478;28;20036;-64
2022/04/11 03:16:42;;;;;;;0.85;0.85;;;2.60;99.90;;;;;;5029667;28;20416;-64
2022/04/11 03:19:09;;;;;;;0.13;0.13;;;2.60;99.90;;;;;;5033789;28;20118;-64
2022/04/11 03:21:35;;;;;;;0.20;0.20;;;2.60;99.90;;;;;;5032298;28;20444;-63
2022/04/11 03:24:01;;;;;;;0.30;0.30;;;2.50;99.90;;;;;;5032202;28;20635;-64
2022/04/11 03:26:27;;;;;;;0.30;0.30;;;2.60;99.90;;;;;;5033352;28;20449;-63
2022/04/11 03:28:53;;;;;;;0.73;0.73;;;2.60;99.90;;;;;;5033466;28;20056;-64
2022/04/11 03:31:19;;;;;;;1.02;1.00;;;2.60;99.90;;;;;;5033443;28;20040;-64
2022/04/11 03:33:44;;;;;;;0.10;0.10;;;2.70;99.90;;;;;;5032082;28;20029;-63
2022/04/11 03:36:10;;;;;;;0.52;0.52;;;2.80;99.90;;;;;;5033380;28;20029;-64
2022/04/11 03:38:36;;;;;;;0.75;0.73;;;2.80;99.90;;;;;;5031762;28;20021;-64
2022/04/11 03:41:02;;;;;;;0.57;0.57;;;2.80;99.90;;;;;;5032307;28;20477;-64
2022/04/11 03:43:28;;;;;;;0.25;0.25;;;2.90;99.90;;;;;;5032076;28;20029;-63
2022/04/11 03:45:54;;;;;;;0.25;0.25;;;3.00;99.90;;;;;;5033320;28;20542;-64
2022/04/11 03:48:20;;;;;;;0.20;0.20;;;3.00;99.90;;;;;;5031395;28;20038;-64
2022/04/11 03:50:46;;;;;;;0.30;0.30;;;3.00;99.90;;;;;;5027828;28;20041;-63
2022/04/11 03:53:12;;;;;;;0.20;0.20;;;3.00;99.90;;;;;;5034961;28;20041;-63
2022/04/11 03:55:39;;;;;;;0.10;0.10;;;3.00;99.90;;;;;;5034921;28;20032;-63
2022/04/11 03:58:05;;;;;;;1.45;1.20;;;3.00;99.90;;;;;;5022913;28;20021;-61
2022/04/11 04:00:30;;;;;;;0.10;0.10;;;3.00;99.90;;;;;;5032898;28;20045;-61
2022/04/11 04:03:17;;;;;;;0.40;0.40;;;3.00;99.90;;;;;;5037053;28;20037;-62
2022/04/11 04:05:45;;;;;;;0.40;0.40;;;3.00;99.90;;;;;;5039454;28;20029;-62
2022/04/11 04:08:12;;;;;;;0.10;0.10;;;2.90;99.90;;;;;;5042264;28;20041;-61
2022/04/11 04:10:43;;;;;;;0.10;0.10;;;2.90;99.90;;;;;;5041383;28;20029;-62
2022/04/11 04:13:09;;;;;;;4.65;0.73;;;2.80;99.90;;;;;;5041767;28;20505;-62
2022/04/11 04:15:36;;;;;;;0.63;0.63;;;2.80;99.90;;;;;;5035416;28;20037;-62
2022/04/11 04:18:02;;;;;;;0.22;0.22;;;2.80;99.90;;;;;;5030764;28;20022;-62
2022/04/11 04:20:27;;;;;;;0.65;0.52;;;2.80;99.90;;;;;;5032484;28;20036;-62
2022/04/11 04:22:54;;;;;;;1.17;1.13;;;2.80;99.90;;;;;;5026124;28;20482;-62
2022/04/11 04:25:19;;;;;;;3.05;2.00;;;2.80;99.90;;;;;;5019986;28;20125;-62
2022/04/11 04:27:45;;;;;;;0.10;0.10;;;2.70;99.90;;;;;;5039321;28;20100;-62
2022/04/11 04:30:12;;;;;;;0.43;0.43;;;2.70;99.90;;;;;;5034098;28;20032;-63
2022/04/11 04:32:39;;;;;;;0.10;0.10;;;2.70;99.90;;;;;;5034450;28;20029;-62
2022/04/11 04:35:06;;;;;;;0.20;0.20;;;2.70;99.90;;;;;;5043435;28;20518;-63
2022/04/11 04:37:32;;;;;;;0.10;0.10;;;2.70;99.90;;;;;;5021830;28;20041;-62
2022/04/11 04:39:58;;;;;;;0.60;0.60;;;2.70;99.90;;;;;;5033588;28;20543;-62
2022/04/11 04:42:26;;;;;;;0.20;0.20;;;2.70;99.90;;;;;;5033829;28;20032;-62
2022/04/11 04:44:53;;;;;;;0.22;0.22;;;2.60;99.90;;;;;;5028369;28;20544;-62
2022/04/11 04:47:18;;;;;;;0.15;0.15;;;2.50;99.90;;;;;;5013952;28;20072;-61
2022/04/11 04:49:45;;;;;;;1.05;1.00;;;2.50;99.90;;;;;;5031920;28;20470;-62
2022/04/11 04:52:12;;;;;;;3.20;0.90;;;2.70;99.90;;;;;;5031632;28;20022;-61
2022/04/11 04:54:37;;;;;;;0.35;0.35;;;2.60;99.90;;;;;;5031474;28;20042;-62
2022/04/11 04:57:05;;;;;;;0.20;0.20;;;2.60;99.90;;;;;;5031192;28;20095;-62
2022/04/11 04:59:31;;;;;;;0.13;0.13;;;2.60;99.90;;;;;;5034831;28;20068;-61
2022/04/11 05:01:57;;;;;;;0.10;0.10;;;2.40;99.90;;;;;;5022053;28;20068;-62
2022/04/11 05:04:23;;;;;;;0.10;0.10;;;2.50;99.90;;;;;;5041678;28;20036;-61
2022/04/11 05:06:49;;;;;;;3.60;2.17;;;2.60;99.90;;;;;;5041299;28;20538;-61
2022/04/11 05:09:15;;;;;;;0.10;0.10;;;2.50;99.90;;;;;;5022062;28;20028;-61
2022/04/11 05:11:40;;;;;;;0.47;0.47;;;2.50;99.90;;;;;;5022076;28;20378;-62
2022/04/11 05:14:07;;;;;;;0.10;0.10;;;2.50;99.90;;;;;;5001417;28;20068;-62
2022/04/11 05:16:32;;;;;;;0.93;0.85;;;2.50;99.90;;;;;;5009904;28;20445;-62
2022/04/11 05:18:58;;;;;;;0.10;0.10;;;2.50;99.90;;;;;;5028600;28;20076;-62
2022/04/11 05:21:24;;;;;;;0.10;0.10;;;2.50;99.90;;;;;;5031152;28;20477;-61
2022/04/11 05:23:50;;;;;;;0.15;0.15;;;2.40;99.90;;;;;;5012073;28;20397;-61
2022/04/11 05:26:18;;;;;;;0.40;0.40;;;2.50;99.90;;;;;;5011225;28;20531;-61
2022/04/11 05:28:45;;;;;;;0.10;0.10;;;2.40;99.90;;;;;;5014956;28;20034;-61
2022/04/11 05:31:11;;;;;;;0.10;0.10;;;2.40;99.90;;;;;;5035655;28;20477;-62
2022/04/11 05:33:37;;;;;;;0.10;0.10;;;2.50;99.90;;;;;;5030823;28;20044;-61
2022/04/11 05:36:03;;;;;;;0.20;0.20;;;2.50;99.90;;;;;;4997800;28;20402;-62
2022/04/11 05:38:29;;;;;;;0.10;0.10;;;2.40;99.90;;;;;;5030355;28;20076;-62
2022/04/11 05:40:56;;;;;;;0.10;0.10;;;2.50;99.90;;;;;;5030460;28;20430;-62
2022/04/11 05:43:22;;;;;;;0.17;0.17;;;2.60;99.90;;;;;;5031033;28;20021;-61
2022/04/11 05:45:48;;;;;;;0.10;0.10;;;2.60;99.90;;;;;;5012793;28;20055;-61
2022/04/11 05:48:14;;;;;;;0.10;0.10;;;2.60;99.90;;;;;;5013060;28;20564;-61
2022/04/11 05:50:40;;;;;;;0.28;0.28;;;2.70;99.90;;;;;;5030402;28;20119;-63
2022/04/11 05:53:06;;;;;;;0.50;0.50;;;2.70;99.90;;;;;;5030577;28;20120;-61
2022/04/11 05:55:32;;;;;;;0.10;0.10;;;2.80;99.90;;;;;;5030750;28;20037;-61
2022/04/11 05:57:58;;;;;;;0.20;0.20;;;2.80;99.90;;;;;;5012809;28;20025;-61
2022/04/11 06:00:24;;;;;;;0.32;0.32;;;2.90;99.90;;;;;;5030237;28;20035;-61
2022/04/11 06:02:50;;;;;;;0.47;0.47;;;3.00;99.90;;;;;;5012154;28;20033;-61
2022/04/11 06:05:16;;;;;;;0.10;0.10;;;3.00;99.90;;;;;;5030858;28;20481;-61
2022/04/11 06:07:42;;;;;;;0.35;0.35;;;3.10;99.90;;;;;;5012472;28;20072;-61
2022/04/11 06:10:09;;;;;;;0.20;0.20;;;3.20;99.90;;;;;;5030822;28;20490;-61
2022/04/11 06:12:36;;;;;;;0.10;0.10;;;3.30;99.90;;;;;;5012804;28;20038;-61
2022/04/11 06:15:02;;;;;;;0.10;0.10;;;3.50;99.90;;;;;;5030149;28;20037;-63
2022/04/11 06:17:28;;;;;;;0.20;0.20;;;3.60;99.90;;;;;;5028881;28;20576;-62
2022/04/11 06:19:58;;;;;;;0.10;0.10;;;3.70;99.90;;;;;;5030081;28;20040;-61
2022/04/11 06:22:25;;;;;;;0.10;0.10;;;3.80;99.90;;;;;;5027860;28;20482;-61
2022/04/11 06:24:58;;;;;;;1.27;1.17;;;3.90;99.90;;;;;;5009066;28;20033;-61
2022/04/11 06:27:23;;;;;;;0.00;0.00;;;4.00;99.90;;;;;;5020835;28;20030;-61
2022/04/11 06:29:56;;;;;;;0.10;0.10;;;4.10;99.90;;;;;;5029208;28;20025;-61
2022/04/11 06:32:30;;;;;;;0.05;0.05;;;4.10;99.90;;;;;;5030579;28;20036;-61
2022/04/11 06:34:56;;;;;;;0.35;0.35;;;4.20;99.90;;;;;;5030372;28;20033;-61
2022/04/11 06:37:23;;;;;;;0.10;0.10;;;4.40;99.90;;;;;;5012133;28;20041;-61
2022/04/11 06:39:54;;;;;;;0.10;0.10;;;4.50;99.90;;;;;;5012708;28;20032;-61
2022/04/11 06:42:20;;;;;;;0.08;0.08;;;4.60;99.90;;;;;;5029786;28;20219;-61
2022/04/11 06:44:46;;;;;;;2.40;0.60;;;4.70;99.90;;;;;;5049392;28;20025;-61
2022/04/11 06:47:12;;;;;;;0.10;0.10;;;4.70;99.90;;;;;;5026997;28;20030;-61
2022/04/11 06:49:39;;;;;;;0.10;0.10;;;4.70;99.90;;;;;;5028677;28;20077;-61
2022/04/11 06:52:07;;;;;;;0.20;0.20;;;4.80;99.90;;;;;;5030692;28;20060;-61
2022/04/11 06:54:34;;;;;;;0.15;0.15;;;4.90;99.90;;;;;;5039842;28;20128;-62
2022/04/11 06:57:10;;;;;;;0.20;0.20;;;4.90;99.90;;;;;;5053473;28;20488;-62
2022/04/11 06:59:35;;;;;;;0.13;0.13;;;4.90;99.90;;;;;;5053918;28;20029;-63
2022/04/11 07:02:01;;;;;;;0.05;0.05;;;5.00;99.90;;;;;;5053703;28;20039;-63
2022/04/11 07:04:27;;;;;;;0.85;0.85;;;5.10;99.90;;;;;;5019177;28;20040;-63
2022/04/11 07:06:53;;;;;;;0.05;0.05;;;5.20;99.90;;;;;;5045573;28;20396;-62
2022/04/11 07:09:18;;;;;;;0.10;0.10;;;5.20;99.90;;;;;;5037662;28;20044;-62
2022/04/11 07:11:44;;;;;;;0.00;0.00;;;5.30;99.90;;;;;;5048674;28;20500;-63
2022/04/11 07:14:11;;;;;;;0.30;0.30;;;5.40;99.90;;;;;;5016465;28;20083;-62
2022/04/11 07:16:37;;;;;;;0.28;0.28;;;5.60;99.90;;;;;;5015296;28;20121;-63
2022/04/11 07:19:02;;;;;;;0.25;0.25;;;5.70;99.90;;;;;;5036493;28;20444;-63
2022/04/11 07:21:31;;;;;;;0.00;0.00;;;5.80;99.90;;;;;;5033569;28;20595;-63
2022/04/11 07:23:57;;;;;;;0.47;0.47;;;5.80;99.90;;;;;;5035578;28;20057;-62
2022/04/11 07:26:22;;;;;;;0.30;0.30;;;6.00;99.90;;;;;;5036455;28;20453;-62
2022/04/11 07:28:48;;;;;;;0.32;0.32;;;6.00;99.90;;;;;;5033937;28;20045;-63
2022/04/11 07:31:15;;;;;;;16.58;1.67;;;6.20;99.90;;;;;;5033260;28;20037;-62
2022/04/11 07:33:43;;;;;;;0.13;0.08;;;6.40;99.90;;;;;;5015712;28;20036;-63
2022/04/11 07:36:09;;;;;;;0.20;0.20;;;6.50;99.90;;;;;;5033379;28;20755;-62
2022/04/11 07:38:35;;;;;;;0.10;0.10;;;6.70;99.90;;;;;;5033451;28;20076;-63
2022/04/11 07:41:01;;;;;;;3.47;2.92;;;6.90;99.90;;;;;;5033672;28;20029;-62
2022/04/11 07:43:26;;;;;;;0.00;0.00;;;6.90;99.90;;;;;;5033151;28;20028;-62
2022/04/11 07:45:52;;;;;;;0.43;0.20;;;7.00;99.90;;;;;;5033206;28;20038;-62
2022/04/11 07:48:18;;;;;;;0.20;0.20;;;7.20;99.90;;;;;;5032743;28;20052;-62
2022/04/11 07:50:43;;;;;;;0.57;0.57;;;7.30;99.90;;;;;;5015696;28;20041;-63
2022/04/11 07:53:09;;;;;;;0.75;0.75;;;7.40;99.90;;;;;;5033160;28;20060;-63
2022/04/11 07:55:35;;;;;;;0.10;0.10;;;7.50;99.90;;;;;;5030798;28;20029;-63
2022/04/11 07:58:01;;;;;;;0.20;0.20;;;7.50;99.90;;;;;;5052707;28;20385;-63
2022/04/11 08:00:28;;;;;;;0.20;0.20;;;7.80;99.90;;;;;;5027138;28;20078;-63
2022/04/11 08:02:55;;;;;;;0.10;0.10;;;8.00;99.90;;;;;;5032601;28;20640;-63
2022/04/11 08:05:22;;;;;;;0.00;0.00;;;8.20;99.90;;;;;;5033045;28;20033;-63
2022/04/11 08:07:49;;;;;;;0.22;0.22;;;8.40;99.90;;;;;;5032070;28;20091;-62
2022/04/11 08:10:16;;;;;;;0.52;0.52;;;8.50;99.90;;;;;;5032809;28;20037;-62
2022/04/11 08:12:57;;;;;;;1.08;0.45;;;8.50;99.90;;;;;;5015198;28;20033;-63
2022/04/11 08:15:25;;;;;;;0.08;0.08;;;8.70;99.90;;;;;;5015335;28;20143;-63
2022/04/11 08:17:51;;;;;;;2.28;1.17;;;8.70;99.90;;;;;;4997987;28;20029;-63
2022/04/11 08:20:17;;;;;;;0.25;0.25;;;8.80;99.90;;;;;;5032600;28;20079;-63
2022/04/11 08:22:43;;;;;;;0.35;0.35;;;9.00;99.90;;;;;;5032806;28;20029;-62
2022/04/11 08:25:09;;;;;;;1.17;1.05;;;9.00;99.90;;;;;;5038083;28;20037;-62
2022/04/11 08:27:35;;;;;;;0.10;0.10;;;9.10;99.90;;;;;;5014375;28;20116;-63
2022/04/11 08:30:02;;;;;;;0.20;0.20;;;9.20;99.90;;;;;;5014766;28;20040;-63
2022/04/11 08:32:47;;;;;;;0.00;0.00;;;9.40;99.90;;;;;;5032549;28;20398;-62
2022/04/11 08:35:13;;;;;;;0.95;0.75;;;9.40;99.90;;;;;;5032569;28;20041;-63
2022/04/11 08:37:43;;;;;;;0.00;0.00;;;9.40;99.90;;;;;;5014205;28;20044;-63
2022/04/11 08:40:20;;;;;;;0.55;0.55;;;9.60;99.90;;;;;;5015151;28;20087;-63
2022/04/11 08:42:48;;;;;;;0.05;0.05;;;9.90;96.50;;;;;;5015140;28;20034;-63
2022/04/11 08:45:15;;;;;;;0.20;0.20;;;10.00;99.50;;;;;;5014219;28;20450;-63
2022/04/11 08:47:42;;;;;;;0.05;0.05;;;10.00;99.80;;;;;;5014224;28;20049;-63
2022/04/11 08:50:09;;;;;;;0.63;0.52;;;10.20;98.20;;;;;;4997957;28;20534;-62
2022/04/11 08:52:37;;;;;;;0.00;0.00;;;10.40;96.60;;;;;;5031901;28;20029;-63
2022/04/11 08:55:04;;;;;;;0.00;0.00;;;10.50;96.40;;;;;;5031906;28;20028;-63
2022/04/11 08:57:30;;;;;;;1.58;1.48;;;10.40;95.80;;;;;;4997497;28;20037;-63
2022/04/11 09:00:01;;;;;;;0.60;0.47;;;10.70;99.90;;;;;;5031809;28;20025;-63
2022/04/11 09:02:34;;;;;;;0.17;0.17;;;10.80;97.50;;;;;;5014302;28;20120;-63
2022/04/11 09:05:00;;;;;;;0.00;0.00;;;10.90;95.20;;;;;;5031638;28;20033;-63
2022/04/11 09:07:27;;;;;;;0.00;0.00;;;10.90;95.50;;;;;;5013606;28;20064;-63
2022/04/11 09:09:57;;;;;;;0.10;0.10;;;11.00;94.70;;;;;;5031962;28;20108;-62
2022/04/11 09:12:22;;;;;;;0.05;0.05;;;10.90;94.00;;;;;;4997851;28;20030;-63
2022/04/11 09:14:56;;;;;;;0.00;0.00;;;11.10;95.20;;;;;;5030856;28;20029;-62
2022/04/11 09:17:25;;;;;;;0.20;0.20;;;11.30;94.00;;;;;;4996997;28;20029;-63
2022/04/11 09:20:10;;;;;;;0.00;0.00;;;11.30;93.70;;;;;;5014029;28;20033;-62
2022/04/11 09:22:36;;;;;;;0.00;0.00;;;11.40;95.10;;;;;;5031714;28;20084;-63
2022/04/11 09:25:24;;;;;;;0.00;0.00;;;11.30;94.30;;;;;;5019255;28;20469;-63
2022/04/11 09:28:10;;;;;;;0.00;0.00;;;11.40;94.70;;;;;;5013505;28;20626;-63
2022/04/11 09:30:39;;;;;;;0.00;0.00;;;11.50;92.00;;;;;;5031594;28;20025;-63
2022/04/11 09:33:10;;;;;;;0.00;0.00;;;11.60;91.70;;;;;;5014131;28;20481;-62
2022/04/11 09:35:39;;;;;;;2.05;1.90;;;11.70;92.00;;;;;;5031023;28;20034;-63
2022/04/11 09:38:21;;;;;;;0.00;0.00;;;11.70;91.30;;;;;;5030742;28;20029;-62
2022/04/11 09:40:53;;;;;;;0.65;0.65;;;11.80;92.30;;;;;;5014286;28;20091;-63
2022/04/11 09:43:30;;;;;;;0.10;0.10;;;11.90;93.60;;;;;;5013695;28;20025;-62
2022/04/11 09:46:01;;;;;;;0.00;0.00;;;12.20;91.00;;;;;;5013621;28;20448;-62
2022/04/11 09:48:35;;;;;;;0.00;0.00;;;12.10;85.60;;;;;;5031336;28;20440;-63
2022/04/11 09:51:07;;;;;;;0.22;0.22;;;12.10;88.90;;;;;;5031247;28;20033;-62
2022/04/11 09:53:35;;;;;;;0.00;0.00;;;12.20;91.30;;;;;;5014294;28;20814;-63
2022/04/11 09:56:09;;;;;;;0.43;0.43;;;12.60;87.90;;;;;;5049688;28;20068;-60
2022/04/11 09:58:40;;;;;;;0.57;0.57;;;12.90;85.40;;;;;;5044447;28;20025;-63
2022/04/11 10:01:08;;;;;;;0.10;0.10;;;13.20;89.70;;;;;;5013147;28;20026;-60
2022/04/11 10:03:34;;;;;;;0.15;0.15;;;13.40;84.10;;;;;;5030494;28;20134;-61
2022/04/11 10:06:01;;;;;;;0.10;0.10;;;13.40;84.90;;;;;;5030730;28;20037;-64
2022/04/11 10:08:27;;;;;;;6.13;1.17;;;13.20;81.10;;;;;;5012222;28;20393;-62
2022/04/11 10:10:55;;;;;;;0.10;0.10;;;13.40;81.40;;;;;;5030282;28;20529;-63
2022/04/11 10:13:21;;;;;;;0.10;0.10;;;13.40;80.90;;;;;;5030493;28;20033;-63
2022/04/11 10:15:49;;;;;;;4.03;0.13;;;13.60;82.50;;;;;;5030377;28;20433;-63
2022/04/11 10:18:26;;;;;;;0.00;0.00;;;13.70;82.10;;;;;;5030591;28;20038;-63
2022/04/11 10:20:59;;;;;;;0.50;0.50;;;13.60;78.60;;;;;;5030591;28;20034;-63
2022/04/11 10:23:37;;;;;;;0.00;0.00;;;13.30;79.20;;;;;;5030668;28;20026;-63
2022/04/11 10:26:15;;;;;;;0.00;0.00;;;13.40;78.70;;;;;;5034799;28;20514;-63
2022/04/11 10:28:51;;;;;;;0.00;0.00;;;13.50;78.50;;;;;;5012980;28;20033;-62
2022/04/11 10:31:17;;;;;;;0.00;0.00;;;13.70;80.70;;;;;;5029933;28;20523;-62
2022/04/11 10:33:55;;;;;;;0.30;0.17;;;13.80;79.10;;;;;;5030366;28;20148;-62
2022/04/11 10:36:38;;;;;;;0.20;0.20;;;13.60;80.90;;;;;;5034046;28;20385;-62
2022/04/11 10:39:16;;;;;;;0.00;0.00;;;13.60;79.50;;;;;;5019120;28;20477;-63
2022/04/11 10:41:57;;;;;;;0.85;0.85;;;13.40;80.50;;;;;;5037334;28;20035;-63
2022/04/11 10:44:42;;;;;;;0.00;0.00;;;13.60;76.80;;;;;;5037533;28;20030;-63
2022/04/11 10:47:17;;;;;;;0.00;0.00;;;14.00;77.20;;;;;;5038972;28;20115;-62
2022/04/11 10:49:48;;;;;;;0.10;0.10;;;14.20;76.20;;;;;;5043600;28;20025;-64
2022/04/11 10:52:29;;;;;;;;;;;14.40;76.60;;;;;;5029667;28;20037;-63
2022/04/11 10:55:15;;;;;;;0.00;0.00;;;14.50;76.00;;;;;;5044573;28;20007;-62
2022/04/11 10:58:19;;;;;;;3.53;0.75;;;14.60;75.60;;;;;;5022584;28;20030;-62
2022/04/11 11:00:45;;;;;;;0.10;0.10;;;14.50;73.50;;;;;;5030287;28;20053;-62
2022/04/11 11:03:13;;;;;;;0.00;0.00;;;15.00;75.00;;;;;;5012164;28;20064;-62
2022/04/11 11:05:41;;;;;;;0.00;0.00;;;14.90;74.00;;;;;;5029788;28;20131;-62
2022/04/11 11:08:10;;;;;;;0.20;0.20;;;15.00;74.10;;;;;;5009764;28;20079;-62
2022/04/11 11:10:55;;;;;;;0.80;0.22;;;14.70;73.20;;;;;;5010347;28;20116;-62
2022/04/11 11:13:41;;;;;;;0.00;0.00;;;14.70;71.40;;;;;;5010236;28;20021;-62
2022/04/11 11:16:07;;;;;;;0.00;0.00;;;14.90;75.30;;;;;;4992572;28;20060;-62
2022/04/11 11:18:48;;;;;;;0.15;0.15;;;14.90;70.70;;;;;;5009996;28;20033;-62
2022/04/11 11:21:33;;;;;;;0.00;0.00;;;15.20;71.70;;;;;;5010482;28;20045;-63
2022/04/11 11:24:04;;;;;;;0.00;0.00;;;15.00;69.90;;;;;;5025216;28;20087;-63
2022/04/11 11:26:53;;;;;;;0.00;0.00;;;15.40;71.40;;;;;;5031875;28;20405;-63
2022/04/11 11:29:32;;;;;;;0.00;0.00;;;15.30;68.30;;;;;;5012627;28;20030;-62
2022/04/11 11:32:06;;;;;;;0.00;0.00;;;15.30;67.90;;;;;;5029792;28;20087;-62
2022/04/11 11:34:36;;;;;;;0.00;0.00;;;15.50;68.30;;;;;;5029647;28;20504;-63
2022/04/11 11:37:09;;;;;;;0.10;0.10;;;15.50;68.30;;;;;;5029105;28;20030;-62
2022/04/11 11:39:37;;;;;;;0.13;0.13;;;15.70;67.20;;;;;;5033279;28;20041;-62
2022/04/11 11:42:11;;;;;;;0.00;0.00;;;15.60;66.60;;;;;;5033147;28;20036;-62
2022/04/11 11:44:49;;;;;;;0.00;0.00;;;15.60;67.30;;;;;;5015882;28;20468;-62
2022/04/11 11:47:16;;;;;;;0.13;0.13;;;15.50;63.60;;;;;;5015284;28;20498;-63
2022/04/11 11:49:45;;;;;;;1.00;0.68;;;15.80;66.60;;;;;;5033277;28;20037;-62
2022/04/11 11:52:14;;;;;;;0.10;0.10;;;16.10;64.00;;;;;;5032871;28;20121;-64
2022/04/11 11:54:46;;;;;;;0.10;0.10;;;16.10;61.20;;;;;;5040846;28;20031;-62
2022/04/11 11:57:28;;;;;;;0.20;0.20;;;16.10;62.30;;;;;;5034684;28;20028;-64
2022/04/11 12:00:09;;;;;;;0.00;0.00;;;16.00;62.90;;;;;;5052480;28;20032;-63
2022/04/11 12:05:35;;;;;;;0.25;0.25;;;15.90;62.90;;;;;;5052815;28;20036;-63
2022/04/11 12:08:13;;;;;;;0.32;0.32;;;15.90;64.50;;;;;;5015023;28;20037;-62
2022/04/11 12:10:47;;;;;;;0.03;0.03;;;16.10;63.80;;;;;;5033025;28;20072;-62
2022/04/11 12:13:24;;;;;;;1.30;0.65;;;16.40;64.20;;;;;;5031564;28;20094;-63
2022/04/11 12:15:50;;;;;;;0.00;0.00;;;16.50;62.80;;;;;;5032254;28;20033;-63
2022/04/11 12:18:16;;;;;;;0.08;0.08;;;16.50;61.10;;;;;;5031135;28;20105;-62
2022/04/11 12:20:45;;;;;;;0.10;0.10;;;16.40;60.20;;;;;;5032306;28;20033;-62
2022/04/11 12:23:16;;;;;;;0.10;0.10;;;16.70;62.20;;;;;;5031288;28;20030;-62
2022/04/11 12:25:47;;;;;;;;;;;17.00;63.00;;;;;;5038832;28;20501;-62
2022/04/11 12:28:21;;;;;;;0.00;0.00;;;16.80;61.30;;;;;;5014606;28;20062;-62
2022/04/11 12:31:03;;;;;;;0.10;0.10;;;16.70;61.50;;;;;;5032551;28;20037;-62
2022/04/11 12:33:50;;;;;;;0.00;0.00;;;17.30;63.00;;;;;;5032468;28;20068;-62
2022/04/11 12:36:24;;;;;;;0.30;0.30;;;17.00;60.00;;;;;;5014262;28;20116;-61
2022/04/11 12:38:59;;;;;;;0.00;0.00;;;16.50;59.20;;;;;;5032116;28;20435;-61
2022/04/11 12:41:47;;;;;;;0.00;0.00;;;16.80;62.30;;;;;;5032033;28;20116;-61
2022/04/11 12:44:17;;;;;;;0.20;0.20;;;17.10;61.50;;;;;;5032013;28;20497;-61
2022/04/11 12:47:03;;;;;;;0.08;0.05;;;17.70;60.80;;;;;;5031990;28;20199;-61
2022/04/11 12:49:54;;;;;;;0.35;0.35;;;17.70;59.90;;;;;;5015694;28;20037;-61
2022/04/11 12:52:28;;;;;;;0.00;0.00;;;17.70;59.70;;;;;;5014639;28;20721;-61
2022/04/11 12:55:04;;;;;;;0.00;0.00;;;17.60;62.70;;;;;;5031705;28;20076;-61
2022/04/11 12:57:35;;;;;;;0.00;0.00;;;17.90;60.60;;;;;;5031452;28;20509;-61
2022/04/11 13:00:20;;;;;;;0.10;0.10;;;18.10;61.80;;;;;;5013782;28;20044;-63
2022/04/11 13:02:45;;;;;;;0.10;0.10;;;17.50;57.70;;;;;;5031697;28;20029;-62
2022/04/11 13:05:15;;;;;;;0.08;0.08;;;17.90;63.10;;;;;;5014228;28;20044;-62
2022/04/11 13:07:46;;;;;;;0.00;0.00;;;18.00;62.60;;;;;;5031333;28;20025;-62